Time;durP1;ratioP1;P1;durP2;ratioP2;P2;SDS_P1;SDS_P2;PMS_P1;PMS_P2;Temp;Humidity;BMP_temperature;BMP_pressure;BME280_temperature;BME280_humidity;BME280_pressure;Samples;Min_cycle;Max_cycle;Signal;HPM_P1;HPM_P2
2023/12/07 00:01:38;;;;;;;842.15;772.42;;;2.40;99.90;;;;;;5052004;28;20204;-86
2023/12/07 00:04:03;;;;;;;841.00;770.38;;;2.50;99.90;;;;;;5048778;28;20033;-86
2023/12/07 00:06:29;;;;;;;830.58;761.20;;;2.50;99.90;;;;;;5055418;28;20032;-86
2023/12/07 00:08:55;;;;;;;822.65;756.50;;;2.40;99.90;;;;;;5049028;28;20425;-86
2023/12/07 00:11:24;;;;;;;852.17;780.33;;;3.50;99.90;;;;;;5050493;28;20044;-86
2023/12/07 00:13:50;;;;;;;796.78;733.10;;;2.50;99.90;;;;;;5061663;28;20037;-86
2023/12/07 00:16:16;;;;;;;838.63;767.97;;;3.60;99.90;;;;;;5064234;28;20033;-86
2023/12/07 00:18:41;;;;;;;800.92;737.15;;;2.40;99.90;;;;;;5048232;28;20064;-86
2023/12/07 00:21:10;;;;;;;839.20;771.25;;;4.00;99.90;;;;;;5051678;28;20051;-86
2023/12/07 00:23:37;;;;;;;811.92;745.60;;;2.50;99.90;;;;;;5049735;28;20184;-86
2023/12/07 00:26:04;;;;;;;808.83;744.72;;;3.30;99.90;;;;;;5068627;28;20466;-86
2023/12/07 00:28:30;;;;;;;834.65;766.28;;;3.20;99.90;;;;;;5051704;28;20032;-86
2023/12/07 00:30:56;;;;;;;855.83;785.40;;;3.20;99.90;;;;;;5048600;28;20047;-86
2023/12/07 00:33:21;;;;;;;827.47;760.33;;;2.40;99.90;;;;;;5048518;28;20398;-86
2023/12/07 00:35:47;;;;;;;868.92;794.25;;;2.50;99.90;;;;;;5075293;28;20032;-86
2023/12/07 00:38:13;;;;;;;815.67;749.85;;;4.00;99.90;;;;;;5049407;28;20052;-86
2023/12/07 00:40:40;;;;;;;868.90;791.75;;;3.60;99.90;;;;;;5053888;28;20033;-86
2023/12/07 00:43:09;;;;;;;836.53;766.03;;;2.10;99.90;;;;;;5070399;28;20037;-86
2023/12/07 00:45:34;;;;;;;841.28;767.90;;;1.80;99.90;;;;;;5054261;28;20037;-86
2023/12/07 00:48:00;;;;;;;847.40;775.28;;;3.70;99.90;;;;;;5052090;28;20451;-86
2023/12/07 00:50:26;;;;;;;813.03;748.08;;;2.50;99.90;;;;;;5047455;28;20049;-86
2023/12/07 00:52:52;;;;;;;822.45;754.67;;;3.60;99.90;;;;;;5054343;28;20056;-86
2023/12/07 00:55:17;;;;;;;812.20;745.90;;;3.70;99.90;;;;;;5071981;28;20060;-87
2023/12/07 00:57:43;;;;;;;819.95;753.22;;;3.30;99.90;;;;;;5053931;28;20036;-85
2023/12/07 01:00:10;;;;;;;827.88;761.85;;;2.60;99.90;;;;;;5048851;28;20656;-86
2023/12/07 01:02:36;;;;;;;844.45;771.50;;;2.40;99.90;;;;;;5054114;28;20059;-86
2023/12/07 01:05:02;;;;;;;813.55;749.83;;;3.80;99.90;;;;;;5055721;28;20041;-86
2023/12/07 01:07:27;;;;;;;795.95;733.95;;;1.30;99.90;;;;;;5054900;28;20527;-86
2023/12/07 01:09:53;;;;;;;813.53;749.70;;;2.40;99.90;;;;;;5051488;28;20074;-86
2023/12/07 01:12:19;;;;;;;805.83;741.65;;;3.90;99.90;;;;;;5051104;28;20123;-86
2023/12/07 01:14:44;;;;;;;815.13;749.63;;;3.70;99.90;;;;;;5070435;28;20044;-86
2023/12/07 01:17:10;;;;;;;806.13;742.65;;;2.30;99.90;;;;;;5051471;28;20049;-86
2023/12/07 01:19:36;;;;;;;829.92;762.45;;;3.10;99.90;;;;;;5054822;28;20041;-86
2023/12/07 01:22:01;;;;;;;829.95;764.28;;;2.10;99.90;;;;;;5050553;28;20039;-86
2023/12/07 01:24:28;;;;;;;839.05;770.15;;;3.80;99.90;;;;;;5051876;28;20052;-86
2023/12/07 01:26:53;;;;;;;809.47;745.30;;;3.70;99.90;;;;;;5050066;28;20516;-86
2023/12/07 01:29:19;;;;;;;820.63;755.88;;;3.70;99.90;;;;;;5064681;28;20045;-86
2023/12/07 01:31:45;;;;;;;802.58;739.55;;;3.50;99.90;;;;;;5048328;28;20045;-86
2023/12/07 01:34:11;;;;;;;817.25;754.13;;;1.70;99.90;;;;;;5055385;28;20131;-85
2023/12/07 01:36:36;;;;;;;790.78;729.78;;;2.40;99.90;;;;;;5047797;28;20045;-86
2023/12/07 01:39:03;;;;;;;787.28;726.53;;;2.40;99.90;;;;;;5053875;28;20040;-86
2023/12/07 01:41:28;;;;;;;799.33;736.83;;;2.40;99.90;;;;;;5050805;28;20071;-85
2023/12/07 01:43:54;;;;;;;796.72;734.92;;;2.40;99.90;;;;;;5068905;28;20032;-86
2023/12/07 01:46:20;;;;;;;828.70;759.63;;;3.30;99.90;;;;;;5051204;28;20076;-86
2023/12/07 01:48:49;;;;;;;810.38;747.85;;;2.40;99.90;;;;;;5053401;28;20044;-86
2023/12/07 01:51:18;;;;;;;830.17;759.78;;;2.40;99.90;;;;;;5051226;28;20116;-86
2023/12/07 01:53:43;;;;;;;813.17;743.72;;;3.60;99.90;;;;;;5051292;28;20047;-86
2023/12/07 01:56:10;;;;;;;819.17;752.65;;;2.40;99.90;;;;;;5054774;28;20032;-86
2023/12/07 01:58:36;;;;;;;850.65;779.20;;;2.50;99.90;;;;;;5058368;28;20075;-86
2023/12/07 02:01:03;;;;;;;815.17;751.63;;;2.50;99.90;;;;;;5052652;28;20058;-85
2023/12/07 02:03:31;;;;;;;839.40;770.70;;;2.40;99.90;;;;;;5048731;28;20069;-86
2023/12/07 02:05:58;;;;;;;814.75;750.92;;;2.50;99.90;;;;;;5068365;28;20041;-86
2023/12/07 02:08:24;;;;;;;799.00;736.22;;;2.40;99.90;;;;;;5048111;28;20040;-86
2023/12/07 02:10:49;;;;;;;803.80;742.50;;;2.40;99.90;;;;;;5051596;28;20573;-85
2023/12/07 02:13:15;;;;;;;822.17;756.15;;;3.40;99.90;;;;;;5055136;28;20036;-85
2023/12/07 02:15:41;;;;;;;819.63;752.92;;;3.30;99.90;;;;;;5054568;28;20032;-85
2023/12/07 02:18:15;;;;;;;792.28;731.63;;;3.50;99.90;;;;;;5051338;28;20488;-86
2023/12/07 02:21:01;;;;;;;800.47;734.15;;;2.90;99.90;;;;;;5053382;28;20148;-86
2023/12/07 02:23:28;;;;;;;821.53;753.40;;;2.40;99.90;;;;;;5044549;28;20045;-85
2023/12/07 02:25:57;;;;;;;833.90;766.03;;;2.40;99.90;;;;;;5053882;28;20399;-85
2023/12/07 02:28:22;;;;;;;833.40;764.42;;;2.90;99.90;;;;;;5053277;28;20104;-85
2023/12/07 02:30:48;;;;;;;830.00;757.17;;;2.40;99.90;;;;;;5055059;28;20538;-86
2023/12/07 02:33:15;;;;;;;822.45;756.17;;;2.40;99.90;;;;;;5046877;28;20103;-86
2023/12/07 02:35:42;;;;;;;858.80;780.75;;;2.40;99.90;;;;;;5050105;28;22790;-85
2023/12/07 02:38:09;;;;;;;799.75;736.58;;;3.70;99.90;;;;;;5052204;28;20116;-85
2023/12/07 02:40:35;;;;;;;776.03;716.25;;;3.10;99.90;;;;;;5055175;28;20612;-85
2023/12/07 02:43:03;;;;;;;806.15;742.47;;;2.40;99.90;;;;;;5076000;28;20167;-85
2023/12/07 02:45:29;;;;;;;829.08;762.35;;;3.90;99.90;;;;;;5055477;28;20040;-86
2023/12/07 02:47:54;;;;;;;812.70;748.63;;;2.40;99.90;;;;;;5063475;28;20509;-85
2023/12/07 02:50:20;;;;;;;803.22;738.97;;;2.30;99.90;;;;;;5055366;28;20079;-85
2023/12/07 02:52:46;;;;;;;798.17;736.17;;;2.40;99.90;;;;;;5060494;28;20041;-85
2023/12/07 02:55:12;;;;;;;821.05;754.38;;;2.40;99.90;;;;;;5060067;28;20152;-85
2023/12/07 02:57:38;;;;;;;799.50;735.75;;;3.30;99.90;;;;;;5056519;28;20047;-85
2023/12/07 03:00:08;;;;;;;814.40;749.85;;;1.70;99.90;;;;;;5077020;28;20040;-85
2023/12/07 03:02:37;;;;;;;799.08;735.95;;;2.30;99.90;;;;;;5068809;28;20045;-85
2023/12/07 03:05:03;;;;;;;820.42;750.80;;;3.00;99.90;;;;;;5058472;28;20101;-85
2023/12/07 03:07:29;;;;;;;806.90;742.40;;;2.30;99.90;;;;;;5055087;28;20044;-85
2023/12/07 03:09:55;;;;;;;798.75;734.60;;;2.50;99.90;;;;;;5066454;28;20048;-87
2023/12/07 03:12:21;;;;;;;787.92;728.28;;;2.30;99.90;;;;;;5051068;28;20056;-85
2023/12/07 03:14:46;;;;;;;796.72;733.22;;;3.50;99.90;;;;;;5047242;28;20089;-85
2023/12/07 03:17:13;;;;;;;785.65;726.25;;;2.30;99.90;;;;;;5049378;28;20064;-85
2023/12/07 03:19:40;;;;;;;793.45;731.60;;;3.50;99.90;;;;;;5050514;28;20045;-85
2023/12/07 03:22:08;;;;;;;804.35;741.97;;;3.50;99.90;;;;;;5070585;28;20033;-85
2023/12/07 03:24:38;;;;;;;834.65;765.42;;;3.90;99.90;;;;;;5067741;28;20464;-85
2023/12/07 03:27:04;;;;;;;812.85;747.35;;;3.90;99.90;;;;;;5056365;28;20209;-85
2023/12/07 03:29:31;;;;;;;812.65;748.03;;;2.30;99.90;;;;;;5054017;28;20117;-86
2023/12/07 03:31:57;;;;;;;816.25;751.33;;;2.30;99.90;;;;;;5080232;28;20043;-86
2023/12/07 03:34:23;;;;;;;799.28;735.53;;;2.30;99.90;;;;;;5062257;28;20048;-86
2023/12/07 03:36:49;;;;;;;804.67;741.92;;;2.40;99.90;;;;;;5058174;28;20063;-85
2023/12/07 03:39:18;;;;;;;822.67;754.80;;;2.30;99.90;;;;;;5059046;28;20036;-86
2023/12/07 03:41:44;;;;;;;782.83;720.97;;;2.30;99.90;;;;;;5068835;28;20037;-86
2023/12/07 03:44:10;;;;;;;793.38;730.97;;;2.30;99.90;;;;;;5083834;28;20029;-86
2023/12/07 03:46:36;;;;;;;804.35;740.78;;;3.20;99.90;;;;;;5051121;28;20067;-85
2023/12/07 03:49:02;;;;;;;789.90;728.70;;;3.30;99.90;;;;;;5058808;28;20032;-86
2023/12/07 03:51:31;;;;;;;817.67;750.70;;;2.60;99.90;;;;;;5051258;28;20036;-84
2023/12/07 03:53:57;;;;;;;824.50;754.72;;;2.30;99.90;;;;;;5050328;28;20048;-85
2023/12/07 03:56:27;;;;;;;817.47;749.70;;;2.30;99.90;;;;;;5049085;28;20067;-85
2023/12/07 03:58:53;;;;;;;788.58;727.83;;;2.30;99.90;;;;;;5045772;28;20037;-85
2023/12/07 04:01:27;;;;;;;792.25;731.42;;;2.70;99.90;;;;;;5055565;28;20619;-85
2023/12/07 04:03:55;;;;;;;820.20;752.50;;;3.60;99.90;;;;;;5059054;28;20044;-85
2023/12/07 04:06:22;;;;;;;791.17;730.85;;;2.30;99.90;;;;;;5056451;28;20048;-85
2023/12/07 04:08:48;;;;;;;847.28;776.65;;;2.30;99.90;;;;;;5055838;28;20037;-86
2023/12/07 04:11:14;;;;;;;807.70;743.10;;;2.30;99.90;;;;;;5053873;28;20550;-86
2023/12/07 04:13:41;;;;;;;788.38;728.28;;;2.30;99.90;;;;;;5057253;28;20041;-85
2023/12/07 04:16:07;;;;;;;779.90;721.50;;;2.20;99.90;;;;;;5052898;28;20519;-85
2023/12/07 04:18:33;;;;;;;803.30;741.40;;;2.20;99.90;;;;;;5052516;28;20128;-85
2023/12/07 04:21:02;;;;;;;774.95;715.55;;;2.10;99.90;;;;;;5055724;28;20065;-85
2023/12/07 04:23:28;;;;;;;762.35;705.30;;;2.10;99.90;;;;;;5054256;28;20036;-85
2023/12/07 04:25:54;;;;;;;784.28;722.42;;;2.10;99.90;;;;;;5053772;28;20037;-86
2023/12/07 04:28:20;;;;;;;779.33;717.85;;;2.00;99.90;;;;;;5056098;28;20501;-86
2023/12/07 04:30:45;;;;;;;782.80;721.20;;;2.00;99.90;;;;;;5055285;28;20395;-85
2023/12/07 04:33:11;;;;;;;776.90;716.20;;;3.20;99.90;;;;;;5052917;28;20406;-86
2023/12/07 04:35:36;;;;;;;789.08;725.33;;;1.90;99.90;;;;;;5056961;28;20036;-85
2023/12/07 04:38:02;;;;;;;779.72;717.97;;;1.90;99.90;;;;;;5054408;28;20040;-85
2023/12/07 04:40:28;;;;;;;793.35;728.88;;;1.80;99.90;;;;;;5069909;28;20052;-85
2023/12/07 04:42:54;;;;;;;784.72;722.33;;;2.30;99.90;;;;;;5053679;28;20420;-86
2023/12/07 04:45:19;;;;;;;782.33;720.72;;;2.50;99.90;;;;;;5055524;28;20054;-86
2023/12/07 04:47:45;;;;;;;808.00;742.40;;;1.70;99.90;;;;;;5056841;28;20066;-86
2023/12/07 04:50:11;;;;;;;794.80;730.17;;;1.90;99.90;;;;;;5069635;28;20041;-86
2023/12/07 04:52:37;;;;;;;770.50;712.05;;;1.60;99.90;;;;;;5052282;28;20044;-85
2023/12/07 04:55:03;;;;;;;780.85;720.35;;;2.30;99.90;;;;;;5070903;28;20161;-85
2023/12/07 04:57:29;;;;;;;787.20;726.63;;;0.30;99.90;;;;;;5056725;28;20602;-86
2023/12/07 04:59:54;;;;;;;788.47;726.25;;;2.60;99.90;;;;;;5072524;28;20037;-85
2023/12/07 05:02:20;;;;;;;789.53;727.67;;;1.80;99.90;;;;;;5053316;28;20037;-85
2023/12/07 05:04:46;;;;;;;806.60;742.10;;;1.40;99.90;;;;;;5047550;28;20532;-86
2023/12/07 05:07:15;;;;;;;803.50;741.42;;;1.40;99.90;;;;;;5052077;28;20120;-85
2023/12/07 05:09:41;;;;;;;804.30;741.42;;;1.40;99.90;;;;;;5055785;28;20066;-86
2023/12/07 05:12:07;;;;;;;796.22;734.58;;;1.40;99.90;;;;;;5086029;28;20488;-87
2023/12/07 05:14:34;;;;;;;825.55;760.42;;;1.40;99.90;;;;;;5056891;28;20068;-85
2023/12/07 05:17:00;;;;;;;819.95;756.17;;;1.40;99.90;;;;;;5047625;28;20098;-85
2023/12/07 05:19:27;;;;;;;821.25;756.50;;;1.40;99.90;;;;;;5050435;28;20055;-86
2023/12/07 05:21:53;;;;;;;823.42;759.90;;;1.40;99.90;;;;;;5054023;28;20113;-86
2023/12/07 05:24:19;;;;;;;850.33;782.20;;;2.70;99.90;;;;;;5047679;28;20405;-87
2023/12/07 05:26:46;;;;;;;857.53;789.53;;;3.00;99.90;;;;;;5050973;28;20079;-86
2023/12/07 05:29:12;;;;;;;856.30;787.70;;;2.70;99.90;;;;;;5037058;28;20041;-86
2023/12/07 05:31:39;;;;;;;848.40;781.78;;;1.30;99.90;;;;;;5052345;28;20063;-86
2023/12/07 05:34:05;;;;;;;851.13;782.92;;;2.10;99.90;;;;;;5055528;28;20067;-86
2023/12/07 05:36:31;;;;;;;854.55;786.90;;;1.60;99.90;;;;;;5051194;28;20071;-86
2023/12/07 05:38:56;;;;;;;858.67;790.53;;;2.70;99.90;;;;;;5070996;28;20036;-86
2023/12/07 05:41:22;;;;;;;850.13;784.50;;;2.90;99.90;;;;;;5049263;28;20024;-86
2023/12/07 05:43:48;;;;;;;871.33;801.47;;;1.50;99.90;;;;;;5048453;28;20033;-86
2023/12/07 05:46:14;;;;;;;884.20;810.25;;;1.50;99.90;;;;;;5048972;28;20082;-87
2023/12/07 05:48:40;;;;;;;866.17;797.80;;;1.50;99.90;;;;;;5054819;28;20041;-86
2023/12/07 05:51:06;;;;;;;869.17;799.28;;;2.90;99.90;;;;;;5065842;28;20444;-88
2023/12/07 05:53:32;;;;;;;913.53;835.20;;;1.50;99.90;;;;;;5045164;28;20059;-89
2023/12/07 05:55:58;;;;;;;886.20;813.63;;;1.50;99.90;;;;;;5048931;28;20408;-90
2023/12/07 05:58:24;;;;;;;851.58;783.58;;;1.50;99.90;;;;;;5050568;28;20063;-88
2023/12/07 06:00:50;;;;;;;848.35;782.30;;;1.50;99.90;;;;;;5048214;28;20088;-87
2023/12/07 06:03:16;;;;;;;894.58;815.08;;;1.50;99.90;;;;;;5049225;28;20467;-87
2023/12/07 06:05:43;;;;;;;855.85;786.45;;;2.80;99.90;;;;;;5056995;28;20175;-87
2023/12/07 06:08:09;;;;;;;847.13;777.08;;;1.60;99.90;;;;;;5053689;28;20116;-88
2023/12/07 06:10:35;;;;;;;844.58;777.90;;;2.30;99.90;;;;;;5065338;28;20063;-87
2023/12/07 06:13:01;;;;;;;871.92;798.80;;;1.40;99.90;;;;;;5059509;28;20033;-88
2023/12/07 06:15:27;;;;;;;843.05;775.72;;;1.20;99.90;;;;;;5050930;28;20041;-87
2023/12/07 06:17:54;;;;;;;842.63;775.28;;;2.80;99.90;;;;;;5060943;28;20111;-87
2023/12/07 06:20:20;;;;;;;843.70;776.33;;;1.40;99.90;;;;;;5068431;28;20041;-88
2023/12/07 06:22:46;;;;;;;844.05;776.75;;;1.40;99.90;;;;;;5074194;28;20041;-87
2023/12/07 06:25:12;;;;;;;843.85;773.83;;;1.40;99.90;;;;;;5074592;28;20092;-86
2023/12/07 06:27:38;;;;;;;849.92;781.17;;;1.40;99.90;;;;;;5076458;28;20071;-87
2023/12/07 06:30:05;;;;;;;849.25;780.38;;;1.40;99.90;;;;;;5048644;28;20083;-88
2023/12/07 06:32:32;;;;;;;826.80;762.55;;;0.70;99.90;;;;;;5079401;28;20045;-88
2023/12/07 06:34:58;;;;;;;830.55;764.35;;;2.70;99.90;;;;;;5057437;28;20067;-87
2023/12/07 06:37:23;;;;;;;843.25;773.30;;;2.80;99.90;;;;;;5058610;28;20052;-88
2023/12/07 06:39:49;;;;;;;836.72;769.20;;;1.50;99.90;;;;;;5062538;28;20045;-88
2023/12/07 06:42:15;;;;;;;852.40;782.20;;;2.90;99.90;;;;;;5047517;28;20036;-88
2023/12/07 06:44:43;;;;;;;841.80;774.72;;;1.50;99.90;;;;;;5076097;28;20041;-87
2023/12/07 06:47:09;;;;;;;848.28;779.15;;;1.50;99.90;;;;;;5043643;28;20029;-88
2023/12/07 06:49:35;;;;;;;901.40;818.78;;;1.50;99.90;;;;;;5046208;28;20036;-88
2023/12/07 06:52:01;;;;;;;855.85;785.38;;;1.50;99.90;;;;;;5060020;28;20056;-88
2023/12/07 06:54:27;;;;;;;835.28;769.30;;;1.50;99.90;;;;;;5042461;28;20037;-88
2023/12/07 06:56:53;;;;;;;828.85;763.22;;;1.50;99.90;;;;;;5059550;28;20116;-88
2023/12/07 06:59:19;;;;;;;826.75;760.10;;;1.50;99.90;;;;;;5049606;28;20033;-87
2023/12/07 07:01:45;;;;;;;867.40;796.05;;;1.50;99.90;;;;;;5063217;28;20041;-87
2023/12/07 07:04:11;;;;;;;829.92;763.63;;;1.60;99.90;;;;;;5054246;28;20039;-88
2023/12/07 07:06:39;;;;;;;870.63;796.05;;;1.60;99.90;;;;;;5072405;28;20059;-88
2023/12/07 07:09:05;;;;;;;856.55;784.83;;;3.10;99.90;;;;;;5061876;28;20032;-87
2023/12/07 07:11:31;;;;;;;855.35;784.42;;;2.60;99.90;;;;;;5058638;28;20068;-87
2023/12/07 07:13:57;;;;;;;825.30;759.30;;;2.50;99.90;;;;;;5062995;28;20621;-87
2023/12/07 07:16:22;;;;;;;830.33;762.97;;;2.70;99.90;;;;;;5042711;28;20044;-87
2023/12/07 07:18:48;;;;;;;834.25;768.13;;;0.40;99.90;;;;;;5055285;28;20045;-87
2023/12/07 07:21:14;;;;;;;848.40;776.22;;;1.40;99.90;;;;;;5059384;28;20067;-87
2023/12/07 07:23:40;;;;;;;836.78;768.28;;;2.90;99.90;;;;;;5060852;28;20033;-87
2023/12/07 07:26:05;;;;;;;860.85;789.10;;;2.50;99.90;;;;;;5051836;28;20044;-87
2023/12/07 07:28:32;;;;;;;861.38;788.30;;;2.90;99.90;;;;;;5072685;28;20051;-86
2023/12/07 07:30:57;;;;;;;832.20;763.70;;;1.60;99.90;;;;;;5064232;28;20033;-87
2023/12/07 07:33:23;;;;;;;854.03;781.50;;;1.50;99.90;;;;;;5057130;28;20124;-91
2023/12/07 07:35:49;;;;;;;858.92;787.33;;;1.50;99.90;;;;;;5060087;28;20045;-91
2023/12/07 07:38:15;;;;;;;857.33;783.13;;;2.00;99.90;;;;;;5055796;28;20064;-91
2023/12/07 07:40:41;;;;;;;836.92;767.17;;;2.60;99.90;;;;;;5061048;28;20029;-90
2023/12/07 07:43:07;;;;;;;824.65;758.08;;;1.40;99.90;;;;;;5073404;28;20060;-89
2023/12/07 07:45:34;;;;;;;849.78;779.67;;;3.00;99.90;;;;;;5055852;28;20037;-88
2023/12/07 07:48:00;;;;;;;849.17;779.75;;;2.50;99.90;;;;;;5049674;28;20047;-89
2023/12/07 07:50:26;;;;;;;854.38;782.75;;;2.40;99.90;;;;;;5059659;28;20040;-88
2023/12/07 07:52:51;;;;;;;841.17;771.95;;;1.50;99.90;;;;;;5078176;28;20397;-88
2023/12/07 07:55:17;;;;;;;832.45;765.47;;;2.10;99.90;;;;;;5072947;28;20049;-88
2023/12/07 07:57:43;;;;;;;845.40;775.25;;;2.50;99.90;;;;;;5049096;28;20049;-88
2023/12/07 08:00:10;;;;;;;866.95;792.25;;;2.80;99.90;;;;;;5040600;28;20033;-87
2023/12/07 08:02:38;;;;;;;836.08;768.05;;;1.50;99.90;;;;;;5047164;28;20051;-87
2023/12/07 08:05:04;;;;;;;833.10;766.35;;;2.00;99.90;;;;;;5045278;28;20041;-86
2023/12/07 08:07:30;;;;;;;845.17;773.58;;;1.50;99.90;;;;;;5056046;28;20082;-88
2023/12/07 08:09:56;;;;;;;866.22;788.47;;;2.90;99.90;;;;;;5061409;28;20036;-88
2023/12/07 08:12:24;;;;;;;833.38;764.53;;;3.10;99.90;;;;;;5059502;28;20067;-87
2023/12/07 08:14:50;;;;;;;820.15;755.97;;;1.50;99.90;;;;;;5039193;28;20036;-88
2023/12/07 08:17:16;;;;;;;837.20;768.90;;;2.80;99.90;;;;;;5058437;28;20124;-89
2023/12/07 08:19:43;;;;;;;836.25;766.83;;;1.60;99.90;;;;;;5074541;28;20505;-86
2023/12/07 08:22:08;;;;;;;855.85;785.72;;;2.70;99.90;;;;;;5045885;28;20041;-86
2023/12/07 08:24:35;;;;;;;891.75;809.72;;;1.10;99.90;;;;;;5073552;28;20065;-86
2023/12/07 08:27:01;;;;;;;836.08;768.33;;;2.90;99.90;;;;;;5057225;28;20033;-86
2023/12/07 08:29:26;;;;;;;850.75;775.75;;;1.60;99.90;;;;;;5063639;28;20031;-86
2023/12/07 08:31:52;;;;;;;820.47;751.45;;;1.50;99.90;;;;;;5056180;28;20100;-86
2023/12/07 08:34:18;;;;;;;847.33;775.00;;;2.70;99.90;;;;;;5059769;28;20040;-87
2023/12/07 08:36:43;;;;;;;832.58;763.22;;;3.10;99.90;;;;;;5076313;28;20033;-87
2023/12/07 08:39:09;;;;;;;824.08;755.17;;;2.60;99.90;;;;;;5056114;28;20029;-86
2023/12/07 08:41:38;;;;;;;823.80;756.67;;;1.60;99.90;;;;;;5057327;28;20071;-85
2023/12/07 08:44:04;;;;;;;821.53;754.58;;;2.50;99.90;;;;;;5033859;28;20067;-89
2023/12/07 08:46:30;;;;;;;834.45;766.17;;;1.50;99.90;;;;;;5053989;28;20044;-85
2023/12/07 08:48:56;;;;;;;837.55;766.88;;;2.90;99.90;;;;;;5057343;28;20049;-86
2023/12/07 08:51:23;;;;;;;837.17;763.78;;;3.10;99.90;;;;;;5050270;28;20047;-87
2023/12/07 08:53:51;;;;;;;811.72;745.58;;;2.90;99.90;;;;;;5053535;28;20040;-86
2023/12/07 08:56:17;;;;;;;821.80;753.53;;;3.10;99.90;;;;;;5061217;28;20044;-86
2023/12/07 08:58:44;;;;;;;806.80;739.83;;;1.40;99.90;;;;;;5055678;28;20067;-86
2023/12/07 09:01:11;;;;;;;803.55;738.88;;;2.30;99.90;;;;;;5057775;28;20037;-86
2023/12/07 09:03:37;;;;;;;797.92;733.78;;;2.60;99.90;;;;;;5068328;28;20039;-85
2023/12/07 09:06:03;;;;;;;809.17;743.92;;;2.80;99.90;;;;;;5056849;28;20404;-84
2023/12/07 09:08:29;;;;;;;768.20;708.97;;;1.40;99.90;;;;;;5077325;28;20079;-86
2023/12/07 09:10:54;;;;;;;790.30;727.72;;;1.30;99.90;;;;;;5078633;28;20058;-85
2023/12/07 09:13:20;;;;;;;807.40;742.58;;;2.20;99.90;;;;;;5056724;28;20037;-87
2023/12/07 09:15:46;;;;;;;803.90;739.35;;;1.30;99.90;;;;;;5068686;28;20105;-85
2023/12/07 09:18:11;;;;;;;807.33;742.03;;;1.30;99.90;;;;;;5070927;28;20072;-86
2023/12/07 09:20:45;;;;;;;820.70;754.78;;;1.20;99.90;;;;;;5057118;28;20040;-86
2023/12/07 09:23:17;;;;;;;808.10;744.65;;;1.10;99.90;;;;;;5063671;28;20104;-86
2023/12/07 09:25:43;;;;;;;812.90;748.85;;;2.60;99.90;;;;;;5062360;28;20048;-86
2023/12/07 09:28:12;;;;;;;816.90;751.53;;;1.10;99.90;;;;;;5093157;28;20036;-86
2023/12/07 09:30:38;;;;;;;854.00;782.90;;;2.20;99.90;;;;;;5080569;28;20094;-86
2023/12/07 09:33:04;;;;;;;836.78;770.35;;;2.50;99.90;;;;;;5061065;28;20107;-86
2023/12/07 09:35:30;;;;;;;834.67;767.65;;;2.20;99.90;;;;;;5081077;28;20052;-86
2023/12/07 09:37:55;;;;;;;851.33;782.90;;;2.60;99.90;;;;;;5070251;28;20041;-84
2023/12/07 09:40:22;;;;;;;845.67;775.40;;;2.20;99.90;;;;;;5074223;28;20040;-86
2023/12/07 09:42:49;;;;;;;853.03;784.88;;;2.40;99.90;;;;;;5059164;28;20035;-86
2023/12/07 09:45:19;;;;;;;846.78;779.38;;;2.20;99.90;;;;;;5079600;28;20036;-86
2023/12/07 09:47:54;;;;;;;860.00;790.83;;;2.60;99.90;;;;;;5077334;28;20036;-86
2023/12/07 09:50:23;;;;;;;875.08;804.05;;;2.80;99.90;;;;;;5053940;28;20401;-86
2023/12/07 09:52:50;;;;;;;867.72;797.70;;;1.30;99.90;;;;;;5050578;28;20041;-86
2023/12/07 09:55:19;;;;;;;879.10;806.92;;;2.30;99.90;;;;;;5059114;28;20032;-86
2023/12/07 09:57:46;;;;;;;887.53;814.20;;;1.30;99.90;;;;;;5058529;28;20041;-86
2023/12/07 10:00:14;;;;;;;904.80;830.67;;;2.80;99.90;;;;;;5048222;28;20033;-87
2023/12/07 10:02:42;;;;;;;921.47;841.58;;;1.40;99.90;;;;;;5065441;28;20048;-86
2023/12/07 10:05:19;;;;;;;901.03;828.10;;;0.10;99.90;;;;;;5057099;28;20033;-87
2023/12/07 10:07:49;;;;;;;926.88;850.60;;;1.50;99.90;;;;;;5051459;28;20047;-86
2023/12/07 10:10:15;;;;;;;898.60;823.60;;;2.30;99.90;;;;;;5055302;28;20044;-86
2023/12/07 10:12:58;;;;;;;915.13;838.58;;;2.30;99.90;;;;;;5078723;28;20401;-87
2023/12/07 10:15:25;;;;;;;904.25;832.03;;;1.50;99.90;;;;;;5053535;28;20033;-86
2023/12/07 10:17:59;;;;;;;918.13;842.92;;;2.80;99.90;;;;;;5058013;28;20132;-86
2023/12/07 10:20:26;;;;;;;918.40;839.60;;;2.40;99.90;;;;;;5068294;28;20036;-86
2023/12/07 10:23:03;;;;;;;917.20;841.83;;;2.90;99.90;;;;;;5059696;28;20029;-88
2023/12/07 10:25:30;;;;;;;914.38;838.45;;;1.60;99.90;;;;;;5078529;28;20055;-86
2023/12/07 10:28:00;;;;;;;920.67;845.45;;;3.10;99.90;;;;;;5070054;28;20090;-87
2023/12/07 10:30:27;;;;;;;911.10;833.70;;;2.80;99.90;;;;;;5056213;28;20037;-86
2023/12/07 10:32:53;;;;;;;911.45;837.08;;;1.70;99.90;;;;;;5056717;28;20045;-86
2023/12/07 10:35:20;;;;;;;936.67;859.15;;;2.90;99.90;;;;;;5058534;28;20060;-85
2023/12/07 10:37:46;;;;;;;935.65;857.80;;;2.60;99.90;;;;;;5056324;28;20543;-86
2023/12/07 10:40:12;;;;;;;920.60;844.13;;;2.00;99.90;;;;;;5060005;28;20186;-86
2023/12/07 10:42:41;;;;;;;920.58;844.42;;;2.70;99.90;;;;;;5057133;28;20029;-86
2023/12/07 10:45:08;;;;;;;921.92;844.10;;;1.80;99.90;;;;;;5054884;28;20040;-86
2023/12/07 10:47:38;;;;;;;910.33;836.13;;;1.80;99.90;;;;;;5061630;28;20063;-85
2023/12/07 10:50:11;;;;;;;908.20;831.10;;;2.80;99.90;;;;;;5048612;28;20036;-85
2023/12/07 10:52:44;;;;;;;874.58;805.13;;;1.90;99.90;;;;;;5054222;28;20041;-86
2023/12/07 10:55:34;;;;;;;883.67;812.90;;;3.20;99.90;;;;;;5065969;28;20123;-86
2023/12/07 10:58:01;;;;;;;864.58;794.92;;;3.20;99.90;;;;;;5056987;28;20296;-86
2023/12/07 11:00:28;;;;;;;898.28;824.80;;;2.40;99.90;;;;;;5057705;28;20036;-86
2023/12/07 11:02:54;;;;;;;897.72;824.10;;;2.40;99.90;;;;;;5051236;28;20060;-86
2023/12/07 11:05:21;;;;;;;908.40;832.10;;;2.00;99.90;;;;;;5065328;28;20173;-86
2023/12/07 11:08:19;;;;;;;882.70;810.25;;;2.90;99.90;;;;;;5066915;28;20163;-86
2023/12/07 11:10:53;;;;;;;843.90;776.65;;;2.10;99.90;;;;;;5046427;28;20053;-87
2023/12/07 11:13:27;;;;;;;837.17;770.35;;;3.30;99.90;;;;;;5072259;28;20055;-86
2023/12/07 11:15:53;;;;;;;860.72;792.45;;;2.90;99.90;;;;;;5055694;28;20100;-86
2023/12/07 11:18:21;;;;;;;863.88;795.03;;;2.20;99.90;;;;;;5052500;28;20060;-86
2023/12/07 11:20:51;;;;;;;840.80;776.15;;;2.90;99.90;;;;;;5054496;28;20086;-85
2023/12/07 11:23:20;;;;;;;841.65;774.70;;;3.20;99.90;;;;;;5051367;28;20044;-86
2023/12/07 11:25:47;;;;;;;841.70;775.58;;;3.00;99.90;;;;;;5059774;28;20116;-86
2023/12/07 11:28:14;;;;;;;836.05;769.65;;;3.30;99.90;;;;;;5050864;28;20211;-86
2023/12/07 11:30:49;;;;;;;803.67;741.15;;;3.30;99.90;;;;;;5048694;28;20060;-87
2023/12/07 11:33:15;;;;;;;807.67;744.17;;;2.10;99.90;;;;;;5051093;28;20037;-87
2023/12/07 11:36:04;;;;;;;762.72;705.42;;;3.50;99.90;;;;;;5056342;28;20060;-86
2023/12/07 11:38:30;;;;;;;789.65;728.53;;;2.10;99.90;;;;;;5070083;28;20068;-85
2023/12/07 11:40:56;;;;;;;812.90;749.70;;;2.80;99.90;;;;;;5054001;28;20036;-87
2023/12/07 11:43:40;;;;;;;817.60;753.63;;;3.50;99.90;;;;;;5066954;28;20033;-86
2023/12/07 11:46:14;;;;;;;800.75;739.25;;;2.00;99.90;;;;;;5044708;28;20043;-87
2023/12/07 11:48:39;;;;;;;815.58;751.80;;;2.00;99.90;;;;;;5044671;28;20045;-86
2023/12/07 11:51:11;;;;;;;849.53;778.78;;;2.10;99.90;;;;;;5044808;28;20041;-87
2023/12/07 11:53:38;;;;;;;837.22;769.80;;;2.10;99.90;;;;;;5042914;28;20036;-87
2023/12/07 11:56:05;;;;;;;844.67;776.65;;;1.80;99.90;;;;;;5042456;28;20063;-87
2023/12/07 11:58:33;;;;;;;837.60;769.60;;;2.20;99.90;;;;;;5043744;28;20234;-87
2023/12/07 12:00:59;;;;;;;833.22;767.42;;;2.20;99.90;;;;;;5062032;28;20040;-87
2023/12/07 12:03:28;;;;;;;842.72;774.67;;;2.50;99.90;;;;;;5041427;28;20037;-87
2023/12/07 12:05:55;;;;;;;805.58;743.25;;;2.20;99.90;;;;;;5061807;28;20040;-87
2023/12/07 12:08:21;;;;;;;807.78;743.38;;;2.10;99.90;;;;;;5041030;28;20048;-87
2023/12/07 12:10:50;;;;;;;837.65;769.83;;;2.20;99.90;;;;;;5044680;28;20040;-87
2023/12/07 12:13:16;;;;;;;823.70;756.42;;;2.20;99.90;;;;;;5041939;28;20041;-87
2023/12/07 12:15:42;;;;;;;837.28;769.58;;;2.30;99.90;;;;;;5044086;28;20049;-87
2023/12/07 12:18:08;;;;;;;836.40;764.50;;;2.20;99.90;;;;;;5044403;28;20040;-87